createdAt,value
2022-08-25T00:00:21.409Z,98186.16
2022-08-25T00:03:05.042Z,98187.27
2022-08-25T00:05:33.599Z,98184.07
2022-08-25T00:08:04.011Z,98187.67
2022-08-25T00:10:35.345Z,98184.05
2022-08-25T00:13:05.074Z,98180.37
2022-08-25T00:15:33.210Z,98178.20
2022-08-25T00:18:01.919Z,98179.27
2022-08-25T00:20:30.049Z,98172.84
2022-08-25T00:22:58.598Z,98174.29
2022-08-25T00:25:27.140Z,98174.36
2022-08-25T00:27:57.471Z,98174.77
2022-08-25T00:30:25.641Z,98171.61
2022-08-25T00:32:57.326Z,98171.16
2022-08-25T00:35:26.755Z,98167.21
2022-08-25T00:37:55.174Z,98167.82
2022-08-25T00:40:26.294Z,98171.47
2022-08-25T00:42:56.223Z,98176.09
2022-08-25T00:45:25.022Z,98173.60
2022-08-25T00:47:53.032Z,98175.14
2022-08-25T00:50:22.897Z,98173.41
2022-08-25T00:52:59.096Z,98170.28
2022-08-25T00:55:31.443Z,98163.04
2022-08-25T00:58:14.744Z,98163.96
2022-08-25T01:00:47.436Z,98166.77
2022-08-25T01:03:19.338Z,98164.92
2022-08-25T01:05:48.081Z,98163.02
2022-08-25T01:08:21.467Z,98158.76
2022-08-25T01:10:51.252Z,98158.17
2022-08-25T01:13:21.526Z,98156.80
2022-08-25T01:15:53.657Z,98158.95
2022-08-25T01:18:22.340Z,98159.85
2022-08-25T01:20:52.916Z,98159.74
2022-08-25T01:23:22.191Z,98157.55
2022-08-25T01:26:07.878Z,98156.67
2022-08-25T01:28:37.452Z,98160.23
2022-08-25T01:31:05.469Z,98159.91
2022-08-25T01:33:52.547Z,98152.50
2022-08-25T01:36:22.104Z,98151.58
2022-08-25T01:38:50.654Z,98150.25
2022-08-25T01:41:31.855Z,98144.84
2022-08-25T01:44:00.572Z,98141.26
2022-08-25T01:46:28.780Z,98145.72
2022-08-25T01:48:56.736Z,98143.77
2022-08-25T01:51:28.225Z,98139.63
2022-08-25T01:53:56.205Z,98137.89
2022-08-25T01:56:24.241Z,98137.78
2022-08-25T01:58:53.574Z,98136.35
2022-08-25T02:01:24.566Z,98133.96
2022-08-25T02:03:55.419Z,98136.34
2022-08-25T02:06:30.018Z,98132.52
2022-08-25T02:09:01.564Z,98130.45
2022-08-25T02:11:29.906Z,98129.54
2022-08-25T02:13:59.243Z,98126.64
2022-08-25T02:16:31.303Z,98125.98
2022-08-25T02:19:00.181Z,98125.39
2022-08-25T02:21:28.642Z,98130.67
2022-08-25T02:23:57.202Z,98127.67
2022-08-25T02:26:25.560Z,98123.73
2022-08-25T02:28:53.609Z,98127.58
2022-08-25T02:31:23.677Z,98122.92
2022-08-25T02:33:53.109Z,98127.60
2022-08-25T02:36:21.325Z,98127.52
2022-08-25T02:38:49.699Z,98121.17
2022-08-25T02:41:20.998Z,98120.32
2022-08-25T02:43:50.078Z,98119.69
2022-08-25T02:46:20.335Z,98121.91
2022-08-25T02:48:48.781Z,98120.77
2022-08-25T02:51:17.028Z,98117.94
2022-08-25T02:53:47.154Z,98117.48
2022-08-25T02:56:16.565Z,98119.35
2022-08-25T02:58:46.077Z,98122.73
2022-08-25T03:01:15.781Z,98118.67
2022-08-25T03:03:46.111Z,98117.23
2022-08-25T03:06:18.994Z,98113.02
2022-08-25T03:08:47.239Z,98113.55
2022-08-25T03:11:15.206Z,98112.37
2022-08-25T03:13:43.200Z,98106.78
2022-08-25T03:16:12.449Z,98102.59
2022-08-25T03:18:42.540Z,98100.49
2022-08-25T03:21:12.468Z,98098.52
2022-08-25T03:23:41.963Z,98097.52
2022-08-25T03:26:28.617Z,98096.07
2022-08-25T03:28:57.248Z,98096.02
2022-08-25T03:31:28.703Z,98094.27
2022-08-25T03:33:56.733Z,98099.25
2022-08-25T03:36:25.681Z,98101.09
2022-08-25T03:38:54.019Z,98098.11
2022-08-25T03:41:28.055Z,98098.23
2022-08-25T03:43:57.500Z,98097.04
2022-08-25T03:46:34.466Z,98101.73
2022-08-25T03:49:06.706Z,98092.33
2022-08-25T03:51:43.061Z,98092.13
2022-08-25T03:54:11.814Z,98094.11
2022-08-25T03:56:40.485Z,98091.59
2022-08-25T03:59:10.068Z,98092.01
2022-08-25T04:01:40.535Z,98093.80
2022-08-25T04:04:10.569Z,98097.34
2022-08-25T04:06:40.060Z,98096.69
2022-08-25T04:09:08.479Z,98093.48
2022-08-25T04:11:37.053Z,98096.65
2022-08-25T04:14:05.940Z,98096.09
2022-08-25T04:16:35.383Z,98097.81
2022-08-25T04:19:08.091Z,98098.73
2022-08-25T04:21:38.967Z,98099.13
2022-08-25T04:24:09.989Z,98100.98
2022-08-25T04:26:42.636Z,98102.89
2022-08-25T04:29:12.209Z,98103.04
2022-08-25T04:31:42.068Z,98102.69
2022-08-25T04:34:28.370Z,98106.95
2022-08-25T04:37:03.299Z,98099.30
2022-08-25T04:39:32.194Z,98096.33
2022-08-25T04:42:01.100Z,98095.25
2022-08-25T04:44:32.001Z,98098.06
2022-08-25T04:47:00.567Z,98095.56
2022-08-25T04:49:28.865Z,98098.69
2022-08-25T04:51:57.697Z,98095.63
2022-08-25T04:54:25.917Z,98093.65
2022-08-25T04:56:58.414Z,98096.51
2022-08-25T04:59:30.438Z,98091.55
2022-08-25T05:02:03.480Z,98090.45
2022-08-25T05:04:33.411Z,98090.29
2022-08-25T05:07:02.279Z,98087.23
2022-08-25T05:09:32.278Z,98088.04
2022-08-25T05:12:02.870Z,98090.62
2022-08-25T05:14:32.476Z,98092.54
2022-08-25T05:17:00.991Z,98090.70
2022-08-25T05:19:29.371Z,98091.54
2022-08-25T05:21:57.791Z,98087.15
2022-08-25T05:24:27.046Z,98084.76
2022-08-25T05:26:55.171Z,98083.67
2022-08-25T05:29:23.641Z,98088.16
2022-08-25T05:31:51.902Z,98092.17
2022-08-25T05:34:20.149Z,98092.67
2022-08-25T05:36:49.222Z,98092.65
2022-08-25T05:39:17.556Z,98092.41
2022-08-25T05:41:45.538Z,98089.40
2022-08-25T05:44:15.875Z,98089.01
2022-08-25T05:46:45.951Z,98093.80
2022-08-25T05:49:13.887Z,98087.34
2022-08-25T05:51:41.833Z,98090.02
2022-08-25T05:54:09.710Z,98089.45
2022-08-25T05:56:37.740Z,98089.90
2022-08-25T05:59:09.238Z,98091.11
2022-08-25T06:01:56.585Z,98085.67
2022-08-25T06:04:24.781Z,98088.14
2022-08-25T06:06:55.054Z,98088.54
2022-08-25T06:09:24.441Z,98087.08
2022-08-25T06:11:55.213Z,98089.27
2022-08-25T06:14:24.188Z,98090.64
2022-08-25T06:16:56.085Z,98088.67
2022-08-25T06:19:24.561Z,98096.55
2022-08-25T06:21:57.286Z,98097.48
2022-08-25T06:24:27.449Z,98097.41
2022-08-25T06:26:56.617Z,98094.84
2022-08-25T06:29:25.537Z,98091.31
2022-08-25T06:31:53.597Z,98090.64
2022-08-25T06:34:24.136Z,98095.48
2022-08-25T06:36:55.422Z,98096.89
2022-08-25T06:39:27.932Z,98095.52
2022-08-25T06:41:56.950Z,98099.00
2022-08-25T06:44:27.863Z,98098.73
2022-08-25T06:46:55.976Z,98095.68
2022-08-25T06:49:31.866Z,98094.42
2022-08-25T06:52:04.011Z,98096.44
2022-08-25T06:54:31.910Z,98092.27
2022-08-25T06:56:59.825Z,98095.89
2022-08-25T06:59:32.256Z,98095.86
2022-08-25T07:02:07.696Z,98094.56
2022-08-25T07:04:36.315Z,98092.04
2022-08-25T07:07:04.683Z,98088.30
2022-08-25T07:09:35.332Z,98089.16
2022-08-25T07:12:08.898Z,98088.91
2022-08-25T07:14:37.140Z,98090.29
2022-08-25T07:17:10.593Z,98088.45
2022-08-25T07:19:41.280Z,98091.67
2022-08-25T07:22:09.561Z,98093.38
2022-08-25T07:24:37.615Z,98091.99
2022-08-25T07:27:05.670Z,98093.64
2022-08-25T07:29:36.849Z,98087.84
2022-08-25T07:32:15.869Z,98089.86
2022-08-25T07:35:02.416Z,98094.30
2022-08-25T07:37:47.700Z,98093.05
2022-08-25T07:40:23.564Z,98097.98
2022-08-25T07:42:56.863Z,98096.08
2022-08-25T07:45:31.740Z,98095.92
2022-08-25T07:48:11.356Z,98096.79
2022-08-25T07:50:45.473Z,98095.95
2022-08-25T07:53:15.349Z,98098.58
2022-08-25T07:55:45.144Z,98092.05
2022-08-25T07:58:15.811Z,98095.02
2022-08-25T08:00:48.091Z,98096.35
2022-08-25T08:03:35.316Z,98097.73
2022-08-25T08:06:10.358Z,98097.89
2022-08-25T08:08:42.675Z,98098.98
2022-08-25T08:11:24.502Z,98100.11
2022-08-25T08:14:46.285Z,98093.73
2022-08-25T08:17:14.364Z,98091.54
2022-08-25T08:19:46.543Z,98087.29
2022-08-25T08:22:17.720Z,98087.70
2022-08-25T08:24:54.578Z,98084.26
2022-08-25T08:27:25.012Z,98086.09
2022-08-25T08:29:53.839Z,98081.96
2022-08-25T08:32:25.279Z,98081.14
2022-08-25T08:34:59.863Z,98077.77
2022-08-25T08:37:28.174Z,98079.65
2022-08-25T08:39:56.451Z,98075.57
2022-08-25T08:42:49.142Z,98079.35
2022-08-25T08:45:30.210Z,98078.65
2022-08-25T08:48:43.260Z,98078.55
2022-08-25T08:51:19.512Z,98071.93
2022-08-25T08:54:07.047Z,98073.59
2022-08-25T08:56:48.109Z,98070.52
2022-08-25T08:59:28.841Z,98068.30
2022-08-25T09:02:01.886Z,98070.10
2022-08-25T09:04:39.548Z,98076.42
2022-08-25T09:07:14.623Z,98073.25
2022-08-25T09:09:45.668Z,98074.61
2022-08-25T09:12:21.899Z,98073.89
2022-08-25T09:15:12.593Z,98071.92
2022-08-25T09:17:54.612Z,98074.83
2022-08-25T09:20:39.020Z,98077.35
2022-08-25T09:23:06.898Z,98073.76
2022-08-25T09:26:11.319Z,98072.34
2022-08-25T09:28:51.743Z,98078.20
2022-08-25T09:31:27.591Z,98078.56
2022-08-25T09:34:01.353Z,98072.21
2022-08-25T09:36:36.924Z,98078.34
2022-08-25T09:39:07.561Z,98071.27
2022-08-25T09:41:57.420Z,98069.13
2022-08-25T09:44:41.546Z,98064.73
2022-08-25T09:47:18.337Z,98062.16
2022-08-25T09:49:51.882Z,98062.80
2022-08-25T09:52:32.101Z,98061.86
2022-08-25T09:55:06.294Z,98058.65
2022-08-25T09:57:43.237Z,98057.36
2022-08-25T10:00:27.739Z,98055.63
2022-08-25T10:03:08.276Z,98058.38
2022-08-25T10:05:49.488Z,98058.30
2022-08-25T10:08:40.946Z,98055.21
2022-08-25T10:11:14.778Z,98047.41
2022-08-25T10:13:49.412Z,98050.98
2022-08-25T10:16:34.076Z,98049.13
2022-08-25T10:19:25.963Z,98045.19
2022-08-25T10:22:32.593Z,98039.12
2022-08-25T10:25:01.118Z,98041.10
2022-08-25T10:27:52.800Z,98038.15
2022-08-25T10:30:28.523Z,98031.89
2022-08-25T10:33:24.684Z,98030.00
2022-08-25T10:36:11.738Z,98030.09
2022-08-25T10:38:43.105Z,98029.60
2022-08-25T10:41:11.257Z,98028.01
2022-08-25T10:43:52.094Z,98025.33
2022-08-25T10:46:26.092Z,98023.92
2022-08-25T10:49:23.866Z,98018.41
2022-08-25T10:52:13.733Z,98021.83
2022-08-25T10:55:03.365Z,98020.20
2022-08-25T10:57:52.788Z,98018.71
2022-08-25T11:00:31.384Z,98020.26
2022-08-25T11:03:08.978Z,98019.20
2022-08-25T11:05:55.848Z,98017.69
2022-08-25T11:08:38.720Z,98015.88
2022-08-25T11:11:21.635Z,98010.90
2022-08-25T11:13:59.112Z,98007.12
2022-08-25T11:17:07.648Z,98001.64
2022-08-25T11:19:38.021Z,98000.04
2022-08-25T11:22:24.107Z,98000.66
2022-08-25T11:25:12.791Z,97999.56
2022-08-25T11:27:57.736Z,97998.42
2022-08-25T11:30:26.511Z,97998.50
2022-08-25T11:32:56.213Z,97996.31
2022-08-25T11:35:39.075Z,97991.52
2022-08-25T11:38:35.897Z,97984.20
2022-08-25T11:41:48.598Z,97981.59
2022-08-25T11:44:53.687Z,97980.74
2022-08-25T11:48:06.725Z,97978.98
2022-08-25T11:50:53.971Z,97978.00
2022-08-25T11:53:28.239Z,97974.05
2022-08-25T11:56:04.472Z,97968.20
2022-08-25T11:58:49.832Z,97966.94
2022-08-25T12:01:40.290Z,97960.95
2022-08-25T12:04:45.116Z,97960.27
2022-08-25T12:07:22.020Z,97959.20
2022-08-25T12:09:55.508Z,97956.23
2022-08-25T12:12:23.323Z,97963.30
2022-08-25T12:14:51.949Z,97963.09
2022-08-25T12:17:37.445Z,97960.43
2022-08-25T12:20:08.255Z,97957.98
2022-08-25T12:22:36.234Z,97953.91
2022-08-25T12:25:11.725Z,97949.38
2022-08-25T12:28:00.714Z,97947.59
2022-08-25T12:30:36.589Z,97942.70
2022-08-25T12:33:34.146Z,97940.50
2022-08-25T12:36:07.149Z,97939.91
2022-08-25T12:38:52.275Z,97942.45
2022-08-25T12:41:54.634Z,97941.56
2022-08-25T12:44:47.360Z,97939.84
2022-08-25T12:47:30.568Z,97933.66
2022-08-25T12:50:37.048Z,97939.02
2022-08-25T12:53:17.885Z,97941.31
2022-08-25T12:55:53.046Z,97945.52
2022-08-25T12:58:59.928Z,97937.23
2022-08-25T13:02:07.810Z,97934.98
2022-08-25T13:05:04.033Z,97938.15
2022-08-25T13:07:39.646Z,97935.70
2022-08-25T13:10:24.024Z,97933.13
2022-08-25T13:13:33.545Z,97939.84
2022-08-25T13:16:08.805Z,97935.48
2022-08-25T13:18:39.731Z,97919.06
2022-08-25T13:21:20.780Z,97935.13
2022-08-25T13:23:54.126Z,97935.39
2022-08-25T13:26:38.145Z,97934.39
2022-08-25T13:29:22.318Z,97934.98
2022-08-25T13:31:58.765Z,97929.16
2022-08-25T13:34:34.750Z,97929.69
2022-08-25T13:37:30.238Z,97928.89
2022-08-25T13:40:25.931Z,97930.10
2022-08-25T13:43:02.796Z,97925.11
2022-08-25T13:45:47.839Z,97923.70
2022-08-25T13:48:38.491Z,97911.52
2022-08-25T13:51:36.848Z,97928.81
2022-08-25T13:54:08.931Z,97925.95
2022-08-25T13:56:41.597Z,97918.54
2022-08-25T13:59:31.425Z,97919.57
2022-08-25T14:02:00.258Z,97918.95
2022-08-25T14:04:50.618Z,97918.20
2022-08-25T14:07:20.187Z,97916.39
2022-08-25T14:09:52.452Z,97919.06
2022-08-25T14:13:15.911Z,97918.07
2022-08-25T14:15:47.005Z,97914.34
2022-08-25T14:18:27.139Z,97911.15
2022-08-25T14:21:16.876Z,97915.03
2022-08-25T14:23:58.974Z,97910.62
2022-08-25T14:26:28.777Z,97906.79
2022-08-25T14:28:56.820Z,97901.80
2022-08-25T14:31:30.143Z,97897.08
2022-08-25T14:33:59.622Z,97896.06
2022-08-25T14:36:30.397Z,97897.79
2022-08-25T14:39:00.251Z,97889.77
2022-08-25T14:41:30.773Z,97895.62
2022-08-25T14:43:59.042Z,97889.36
2022-08-25T14:46:30.038Z,97886.96
2022-08-25T14:49:11.940Z,97883.39
2022-08-25T14:51:42.451Z,97882.89
2022-08-25T14:54:15.131Z,97887.94
2022-08-25T14:56:43.937Z,97882.67
2022-08-25T14:59:12.209Z,97882.98
2022-08-25T15:01:40.790Z,97884.03
2022-08-25T15:04:16.008Z,97884.77
2022-08-25T15:06:46.868Z,97881.23
2022-08-25T15:09:16.761Z,97882.08
2022-08-25T15:11:50.618Z,97886.56
2022-08-25T15:14:28.814Z,97887.79
2022-08-25T15:17:14.858Z,97885.52
2022-08-25T15:19:47.718Z,97887.59
2022-08-25T15:22:17.016Z,97886.11
2022-08-25T15:24:45.257Z,97888.25
2022-08-25T15:27:19.675Z,97884.00
2022-08-25T15:29:48.266Z,97881.27
2022-08-25T15:32:18.663Z,97883.91
2022-08-25T15:34:46.835Z,97886.60
2022-08-25T15:37:16.644Z,97886.81
2022-08-25T15:39:46.771Z,97881.77
2022-08-25T15:42:16.688Z,97881.68
2022-08-25T15:44:52.880Z,97881.37
2022-08-25T15:47:22.690Z,97884.30
2022-08-25T15:49:51.608Z,97881.41
2022-08-25T15:52:19.512Z,97883.09
2022-08-25T15:54:47.561Z,97883.77
2022-08-25T15:57:24.341Z,97876.83
2022-08-25T15:59:53.204Z,97874.55
2022-08-25T16:02:22.085Z,97880.93
2022-08-25T16:04:51.595Z,97882.63
2022-08-25T16:07:20.336Z,97879.16
2022-08-25T16:09:50.664Z,97876.77
2022-08-25T16:12:19.183Z,97875.42
2022-08-25T16:14:47.566Z,97876.95
2022-08-25T16:17:16.587Z,97874.81
2022-08-25T16:19:44.898Z,97882.07
2022-08-25T16:22:13.104Z,97876.73
2022-08-25T16:24:44.504Z,97874.96
2022-08-25T16:27:14.284Z,97875.71
2022-08-25T16:29:44.336Z,97877.41
2022-08-25T16:32:14.135Z,97877.05
2022-08-25T16:34:44.219Z,97883.34
2022-08-25T16:37:14.662Z,97884.18
2022-08-25T16:39:46.073Z,97886.36
2022-08-25T16:42:14.595Z,97879.88
2022-08-25T16:45:13.921Z,97880.36
2022-08-25T16:47:42.702Z,97879.28
2022-08-25T16:50:11.471Z,97878.07
2022-08-25T16:52:59.338Z,97876.90
2022-08-25T16:55:38.646Z,97878.91
2022-08-25T16:58:08.738Z,97883.05
2022-08-25T17:00:41.585Z,97879.30
2022-08-25T17:03:13.134Z,97883.46
2022-08-25T17:05:42.866Z,97886.70
2022-08-25T17:08:30.595Z,97880.63
2022-08-25T17:11:14.820Z,97886.06
2022-08-25T17:13:47.781Z,97882.73
2022-08-25T17:16:19.386Z,97885.98
2022-08-25T17:18:48.744Z,97882.68
2022-08-25T17:21:23.817Z,97884.01
2022-08-25T17:23:53.312Z,97880.21
2022-08-25T17:26:27.567Z,97879.73
2022-08-25T17:28:59.376Z,97876.11
2022-08-25T17:31:30.011Z,97880.83
2022-08-25T17:33:59.586Z,97880.20
2022-08-25T17:36:28.631Z,97881.52
2022-08-25T17:38:59.737Z,97883.27
2022-08-25T17:41:27.692Z,97883.27
2022-08-25T17:43:55.710Z,97885.09
2022-08-25T17:46:24.341Z,97881.55
2022-08-25T17:48:53.189Z,97882.75
2022-08-25T17:51:23.133Z,97882.19
2022-08-25T17:53:53.029Z,97882.76
2022-08-25T17:56:23.543Z,97884.92
2022-08-25T17:58:56.104Z,97882.13
2022-08-25T18:01:27.629Z,97883.13
2022-08-25T18:03:57.529Z,97878.21
2022-08-25T18:06:29.504Z,97879.11
2022-08-25T18:09:01.549Z,97879.75
2022-08-25T18:11:31.547Z,97880.33
2022-08-25T18:14:02.503Z,97882.87
2022-08-25T18:16:32.524Z,97881.25
2022-08-25T18:19:02.716Z,97885.59
2022-08-25T18:21:35.106Z,97886.27
2022-08-25T18:24:03.364Z,97880.48
2022-08-25T18:26:32.297Z,97883.83
2022-08-25T18:29:00.543Z,97884.11
2022-08-25T18:31:31.840Z,97879.27
2022-08-25T18:34:00.244Z,97879.23
2022-08-25T18:36:28.806Z,97878.61
2022-08-25T18:39:15.494Z,97881.39
2022-08-25T18:41:45.086Z,97879.94
2022-08-25T18:44:16.443Z,97883.68
2022-08-25T18:46:45.532Z,97883.03
2022-08-25T18:49:17.668Z,97882.30
2022-08-25T18:51:47.389Z,97880.62
2022-08-25T18:54:23.321Z,97877.89
2022-08-25T18:56:54.857Z,97876.61
2022-08-25T18:59:23.699Z,97878.11
2022-08-25T19:01:54.236Z,97880.41
2022-08-25T19:04:31.336Z,97883.17
2022-08-25T19:07:02.931Z,97879.20
2022-08-25T19:09:32.075Z,97882.16
2022-08-25T19:12:25.459Z,97884.17
2022-08-25T19:14:53.573Z,97881.38
2022-08-25T19:17:24.666Z,97878.84
2022-08-25T19:19:53.007Z,97882.20
2022-08-25T19:22:40.314Z,97879.06
2022-08-25T19:25:10.266Z,97872.68
2022-08-25T19:27:38.935Z,97872.41
2022-08-25T19:30:10.183Z,97867.61
2022-08-25T19:32:41.877Z,97866.34
2022-08-25T19:35:32.469Z,97866.69
2022-08-25T19:38:03.226Z,97868.45
2022-08-25T19:40:35.927Z,97870.44
2022-08-25T19:43:07.530Z,97869.52
2022-08-25T19:45:36.778Z,97869.01
2022-08-25T19:48:05.924Z,97872.61
2022-08-25T19:50:34.905Z,97877.09
2022-08-25T19:53:03.911Z,97878.36
2022-08-25T19:55:32.316Z,97878.09
2022-08-25T19:58:00.674Z,97875.55
2022-08-25T20:00:32.861Z,97876.29
2022-08-25T20:03:02.360Z,97876.39
2022-08-25T20:05:31.459Z,97874.23
2022-08-25T20:07:59.904Z,97877.15
2022-08-25T20:10:32.740Z,97876.42
2022-08-25T20:13:09.368Z,97880.95
2022-08-25T20:15:39.051Z,97878.84
2022-08-25T20:18:08.257Z,97876.75
2022-08-25T20:20:36.840Z,97876.58
2022-08-25T20:23:24.221Z,97873.91
2022-08-25T20:25:53.194Z,97874.88
2022-08-25T20:28:21.385Z,97875.38
2022-08-25T20:30:49.549Z,97876.39
2022-08-25T20:33:22.506Z,97874.45
2022-08-25T20:35:53.080Z,97873.17
2022-08-25T20:38:21.569Z,97872.28
2022-08-25T20:40:49.590Z,97874.08
2022-08-25T20:43:18.152Z,97873.43
2022-08-25T20:45:49.280Z,97869.39
2022-08-25T20:48:17.976Z,97870.21
2022-08-25T20:50:46.113Z,97870.01
2022-08-25T20:53:25.795Z,97867.03
2022-08-25T20:55:53.895Z,97869.20
2022-08-25T20:58:21.953Z,97866.34
2022-08-25T21:00:51.644Z,97866.77
2022-08-25T21:03:20.813Z,97867.88
2022-08-25T21:05:48.699Z,97867.65
2022-08-25T21:08:22.151Z,97860.70
2022-08-25T21:10:51.988Z,97855.02
2022-08-25T21:13:19.917Z,97856.09
2022-08-25T21:15:50.715Z,97858.52
2022-08-25T21:18:18.773Z,97864.56
2022-08-25T21:20:47.330Z,97866.83
2022-08-25T21:23:15.340Z,97869.20
2022-08-25T21:25:43.691Z,97867.61
2022-08-25T21:28:11.699Z,97865.54
2022-08-25T21:30:44.813Z,97864.35
2022-08-25T21:33:15.614Z,97861.50
2022-08-25T21:35:44.066Z,97861.39
2022-08-25T21:38:11.937Z,97865.26
2022-08-25T21:41:39.995Z,97859.29
2022-08-25T21:45:35.801Z,97854.74
2022-08-25T21:49:24.842Z,97853.66
2022-08-25T21:53:12.809Z,97856.77
2022-08-25T21:57:04.207Z,97852.80
2022-08-25T22:00:52.562Z,97855.63
2022-08-25T22:03:21.329Z,97855.11
2022-08-25T22:05:49.402Z,97854.33
2022-08-25T22:08:17.817Z,97853.89
2022-08-25T22:10:47.626Z,97850.95
2022-08-25T22:13:15.537Z,97853.02
2022-08-25T22:15:46.314Z,97851.96
2022-08-25T22:18:21.246Z,97854.88
2022-08-25T22:20:50.427Z,97855.23
2022-08-25T22:23:20.135Z,97856.48
2022-08-25T22:25:48.752Z,97852.98
2022-08-25T22:28:16.800Z,97849.27
2022-08-25T22:30:44.833Z,97842.95
2022-08-25T22:33:13.492Z,97844.77
2022-08-25T22:35:41.674Z,97847.09
2022-08-25T22:38:12.475Z,97847.78
2022-08-25T22:40:41.312Z,97846.05
2022-08-25T22:43:10.912Z,97843.16
2022-08-25T22:45:39.318Z,97839.60
2022-08-25T22:48:07.364Z,97834.73
2022-08-25T22:50:36.680Z,97835.27
2022-08-25T22:53:04.695Z,97834.77
2022-08-25T22:55:32.883Z,97834.86
2022-08-25T22:58:01.076Z,97837.43
2022-08-25T23:00:28.984Z,97829.77
2022-08-25T23:02:57.066Z,97823.56
2022-08-25T23:05:24.984Z,97820.10
2022-08-25T23:07:52.931Z,97816.59
2022-08-25T23:10:22.839Z,97816.02
2022-08-25T23:12:51.035Z,97809.04
2022-08-25T23:15:19.490Z,97811.03
2022-08-25T23:17:47.519Z,97809.10
2022-08-25T23:20:35.207Z,97812.71
2022-08-25T23:23:03.283Z,97812.77
2022-08-25T23:25:31.435Z,97813.04
2022-08-25T23:27:59.324Z,97816.28
2022-08-25T23:30:27.323Z,97812.61
2022-08-25T23:32:56.533Z,97810.65
2022-08-25T23:35:24.481Z,97805.90
2022-08-25T23:37:52.352Z,97801.86
2022-08-25T23:40:21.743Z,97802.45
2022-08-25T23:42:50.494Z,97805.26
2022-08-25T23:45:18.566Z,97799.52
2022-08-25T23:47:46.562Z,97802.91
2022-08-25T23:50:17.911Z,97802.09
2022-08-25T23:52:46.330Z,97800.61
2022-08-25T23:55:15.043Z,97801.86
2022-08-25T23:57:43.589Z,97803.45
